Time;durP1;ratioP1;P1;durP2;ratioP2;P2;SDS_P1;SDS_P2;PMS_P1;PMS_P2;Temp;Humidity;BMP_temperature;BMP_pressure;BME280_temperature;BME280_humidity;BME280_pressure;Samples;Min_cycle;Max_cycle;Signal;HPM_P1;HPM_P2
2022/09/27 00:01:09;;;;;;;0.10;0.10;;;;;;;13.23;70.23;99819.19;5029338;28;20116;-78
2022/09/27 00:03:35;;;;;;;0.10;0.10;;;;;;;13.21;70.21;99824.59;5031275;28;20084;-77
2022/09/27 00:06:12;;;;;;;0.10;0.10;;;;;;;13.24;70.51;99843.06;5030923;28;20116;-77
2022/09/27 00:08:39;;;;;;;0.10;0.10;;;;;;;13.22;70.36;99833.44;5032150;28;20040;-77
2022/09/27 00:11:09;;;;;;;0.10;0.10;;;;;;;13.18;70.27;99824.72;5032990;28;20022;-78
2022/09/27 00:13:35;;;;;;;0.10;0.10;;;;;;;13.19;70.37;99828.28;5033644;28;20451;-77
2022/09/27 00:16:04;;;;;;;0.10;0.10;;;;;;;13.15;70.22;99819.56;5030143;28;20033;-78
2022/09/27 00:18:31;;;;;;;0.10;0.10;;;;;;;13.13;70.28;99821.44;5032115;28;20128;-77
2022/09/27 00:21:06;;;;;;;0.10;0.10;;;;;;;13.17;70.12;99830.13;5030074;28;20116;-77
2022/09/27 00:23:33;;;;;;;0.40;0.40;;;;;;;13.11;69.81;99839.28;5030778;28;20018;-77
2022/09/27 00:26:00;;;;;;;0.10;0.10;;;;;;;13.10;70.39;99835.72;5030710;28;20116;-77
2022/09/27 00:28:27;;;;;;;0.10;0.10;;;;;;;13.13;69.79;99837.38;5029248;28;20045;-77
2022/09/27 00:30:53;;;;;;;5.38;0.80;;;;;;;13.08;70.13;99836.75;5031472;28;20038;-77
2022/09/27 00:33:20;;;;;;;0.10;0.10;;;;;;;13.07;69.68;99829.69;5030378;28;20038;-79
2022/09/27 00:35:46;;;;;;;0.10;0.10;;;;;;;13.04;70.00;99820.06;5031314;28;20033;-77
2022/09/27 00:38:12;;;;;;;0.10;0.10;;;;;;;13.03;69.70;99822.81;5031879;28;20071;-78
2022/09/27 00:40:39;;;;;;;0.10;0.10;;;;;;;13.02;69.70;99831.72;5029202;28;20068;-77
2022/09/27 00:43:18;;;;;;;0.10;0.10;;;;;;;13.11;69.44;99868.53;5029202;28;20109;-77
2022/09/27 00:45:54;;;;;;;0.10;0.10;;;;;;;13.00;69.75;99846.88;5028587;28;20021;-77
2022/09/27 00:48:26;;;;;;;0.10;0.10;;;;;;;12.97;70.14;99844.34;5029881;28;20029;-77
2022/09/27 00:50:56;;;;;;;0.20;0.20;;;;;;;12.95;70.18;99832.00;5031784;28;20547;-77
2022/09/27 00:53:32;;;;;;;0.10;0.10;;;;;;;12.93;70.01;99849.81;5030612;28;20481;-77
2022/09/27 00:56:08;;;;;;;0.10;0.10;;;;;;;12.93;69.70;99849.81;5031739;28;20033;-78
2022/09/27 00:58:39;;;;;;;0.10;0.10;;;;;;;12.88;69.82;99849.16;5030190;28;20040;-77
2022/09/27 01:01:09;;;;;;;0.10;0.10;;;;;;;12.79;69.39;99850.44;5028147;28;20025;-77
2022/09/27 01:03:43;;;;;;;0.10;0.10;;;;;;;12.77;69.75;99851.44;5031181;28;20120;-76
2022/09/27 01:06:10;;;;;;;0.10;0.10;;;;;;;12.73;69.56;99852.50;5030293;28;20022;-77
2022/09/27 01:08:36;;;;;;;0.10;0.10;;;;;;;12.70;69.92;99845.53;5031656;28;20033;-78
2022/09/27 01:16:47;;;;;;;0.10;0.10;;;;;;;12.69;69.50;99858.91;5091045;27;20352;-77
2022/09/27 01:22:24;;;;;;;0.10;0.10;;;;;;;12.65;69.64;99857.28;5047427;28;20404;-77
2022/09/27 01:24:57;;;;;;;;;;;;;;;12.74;69.09;99860.41;5040305;28;20044;-77
2022/09/27 01:27:55;;;;;;;0.10;0.10;;;;;;;12.68;69.20;99854.53;5034258;28;20407;-77
2022/09/27 01:30:32;;;;;;;0.13;0.13;;;;;;;12.63;69.90;99857.38;5035220;28;20030;-77
2022/09/27 01:33:26;;;;;;;0.10;0.10;;;;;;;12.61;69.72;99854.78;5032391;28;20028;-77
2022/09/27 01:39:07;;;;;;;0.17;0.17;;;;;;;12.59;69.83;99856.63;5054463;28;20405;-78
2022/09/27 01:41:57;;;;;;;0.10;0.10;;;;;;;12.56;69.67;99851.47;5044839;28;20034;-77
2022/09/27 01:44:33;;;;;;;0.10;0.10;;;;;;;12.58;70.00;99848.75;5043943;28;20033;-77
2022/09/27 01:47:04;;;;;;;0.10;0.10;;;;;;;12.58;70.09;99860.22;5045311;28;20102;-78
2022/09/27 01:49:38;;;;;;;0.10;0.10;;;;;;;12.58;69.91;99856.72;5045530;28;20025;-77
2022/09/27 01:52:07;;;;;;;0.20;0.20;;;;;;;12.56;69.88;99862.09;5046751;28;20389;-77
2022/09/27 01:54:42;;;;;;;0.10;0.10;;;;;;;12.60;69.68;99862.84;5037301;28;20037;-77
2022/09/27 01:57:12;;;;;;;0.17;0.17;;;;;;;12.58;70.00;99864.69;5034040;28;20382;-77
2022/09/27 01:59:58;;;;;;;0.10;0.10;;;;;;;12.66;69.76;99861.69;5037708;28;20037;-77
2022/09/27 02:02:28;;;;;;;0.10;0.10;;;;;;;12.56;70.30;99864.75;5037475;28;20029;-77
2022/09/27 02:04:59;;;;;;;0.20;0.20;;;;;;;12.53;69.88;99856.91;5037392;28;20022;-77
2022/09/27 02:07:42;;;;;;;0.10;0.10;;;;;;;12.53;69.63;99851.59;5035314;28;20072;-77
2022/09/27 02:10:11;;;;;;;;;;;;;;;12.56;69.82;99839.97;5037733;28;20029;-77
2022/09/27 02:12:48;;;;;;;0.10;0.10;;;;;;;12.38;69.43;99846.97;5039263;28;19917;-77
2022/09/27 02:15:15;;;;;;;0.10;0.10;;;;;;;12.29;69.81;99835.81;5038640;28;20025;-78
2022/09/27 02:17:55;;;;;;;0.10;0.10;;;;;;;12.30;69.58;99832.22;5035406;28;20120;-77
2022/09/27 02:20:31;;;;;;;0.10;0.10;;;;;;;12.28;69.82;99831.41;5044367;28;20036;-77
2022/09/27 02:25:49;;;;;;;0.10;0.10;;;;;;;12.19;69.62;99825.66;5063974;28;20345;-77
2022/09/27 02:30:52;;;;;;;0.10;0.10;;;;;;;12.16;70.14;99829.28;5107462;27;20395;-76
2022/09/27 02:33:23;;;;;;;0.13;0.13;;;;;;;12.21;69.58;99832.63;5086392;28;20077;-78
2022/09/27 02:35:49;;;;;;;0.10;0.10;;;;;;;12.22;69.90;99838.78;5078804;28;20040;-77
2022/09/27 02:38:15;;;;;;;0.10;0.10;;;;;;;12.18;70.23;99872.59;5081327;28;20089;-77
2022/09/27 02:40:44;;;;;;;0.10;0.10;;;;;;;12.07;69.77;99885.44;5081703;28;20040;-77
2022/09/27 02:43:13;;;;;;;0.03;0.03;;;;;;;11.97;69.05;99885.84;5079805;28;20024;-76
2022/09/27 02:46:09;;;;;;;0.10;0.10;;;;;;;12.01;69.02;99889.22;5082250;28;20186;-77
2022/09/27 02:49:00;;;;;;;0.15;0.15;;;;;;;12.15;69.23;99870.06;5085721;28;20032;-77
2022/09/27 02:52:06;;;;;;;0.10;0.10;;;;;;;12.08;68.66;99868.59;5082571;28;20078;-77
2022/09/27 03:00:12;;;;;;;0.10;0.10;;;;;;;11.95;68.78;99861.09;5002683;28;20498;-79
2022/09/27 03:03:01;;;;;;;0.20;0.20;;;;;;;12.00;68.70;99857.41;4995951;28;20505;-79
2022/09/27 03:05:32;;;;;;;0.13;0.13;;;;;;;11.87;69.01;99847.28;4999370;28;20377;-80
2022/09/27 03:07:59;;;;;;;0.10;0.10;;;;;;;11.81;68.64;99848.41;4990254;28;20038;-81
2022/09/27 03:10:27;;;;;;;0.20;0.20;;;;;;;11.80;68.72;99856.41;4996251;28;20030;-81
2022/09/27 03:12:55;;;;;;;0.10;0.10;;;;;;;11.77;68.72;99846.78;4986842;28;20027;-81
2022/09/27 03:15:21;;;;;;;0.10;0.10;;;;;;;11.76;69.06;99849.50;4989858;28;20037;-81
2022/09/27 03:17:47;;;;;;;0.75;0.60;;;;;;;11.74;68.76;99851.34;4991697;28;20033;-81
2022/09/27 03:20:14;;;;;;;0.10;0.10;;;;;;;11.69;69.12;99858.66;4996976;28;20038;-80
2022/09/27 03:22:41;;;;;;;0.20;0.20;;;;;;;11.67;69.16;99850.75;4996708;28;20031;-80
2022/09/27 03:25:07;;;;;;;0.15;0.15;;;;;;;11.64;69.24;99851.75;4993044;28;20022;-80
2022/09/27 03:27:33;;;;;;;0.10;0.10;;;;;;;11.64;69.19;99846.44;4987609;28;20039;-79
2022/09/27 03:30:00;;;;;;;0.10;0.10;;;;;;;11.63;69.51;99839.41;4987916;28;20042;-80
2022/09/27 03:32:26;;;;;;;0.20;0.20;;;;;;;11.63;69.31;99842.06;4991500;28;20050;-79
2022/09/27 03:34:54;;;;;;;0.10;0.10;;;;;;;11.64;69.23;99834.97;4989461;28;20392;-79
2022/09/27 03:37:20;;;;;;;0.10;0.10;;;;;;;11.63;69.67;99838.53;4989828;28;20023;-80
2022/09/27 03:39:46;;;;;;;0.10;0.10;;;;;;;11.63;69.67;99838.53;4997051;28;20447;-79
2022/09/27 03:42:13;;;;;;;0.10;0.10;;;;;;;11.65;68.93;99842.88;5002599;28;20038;-80
2022/09/27 03:44:39;;;;;;;0.10;0.10;;;;;;;11.68;69.46;99846.31;4994700;28;20037;-80
2022/09/27 03:47:07;;;;;;;0.17;0.17;;;;;;;11.66;69.17;99849.03;4988792;28;20618;-80
2022/09/27 03:49:34;;;;;;;0.10;0.10;;;;;;;11.70;69.46;99852.41;4994068;28;20029;-79
2022/09/27 03:52:00;;;;;;;4.15;1.10;;;;;;;11.67;69.57;99871.13;4990905;28;20023;-79
2022/09/27 03:54:26;;;;;;;0.20;0.20;;;;;;;11.65;69.55;99871.16;4992651;28;20511;-79
2022/09/27 03:56:52;;;;;;;0.10;0.10;;;;;;;11.64;69.29;99877.44;4990621;28;20035;-79
2022/09/27 03:59:18;;;;;;;0.10;0.10;;;;;;;11.62;69.42;99872.16;4990356;28;20496;-79
2022/09/27 04:01:44;;;;;;;0.10;0.10;;;;;;;11.60;69.71;99878.44;4988311;28;20038;-79
2022/09/27 04:04:11;;;;;;;0.10;0.10;;;;;;;11.55;70.19;99878.66;4987848;28;20038;-79
2022/09/27 04:06:37;;;;;;;0.10;0.10;;;;;;;11.62;69.75;99874.81;4993121;28;20048;-79
2022/09/27 04:09:03;;;;;;;0.20;0.20;;;;;;;11.58;70.61;99862.59;4988418;28;20035;-79
2022/09/27 04:11:29;;;;;;;0.10;0.10;;;;;;;11.69;70.01;99869.25;4978514;28;20121;-80
2022/09/27 04:13:56;;;;;;;0.10;0.10;;;;;;;11.67;70.70;99876.44;4978302;28;20047;-79
2022/09/27 04:16:22;;;;;;;0.10;0.10;;;;;;;11.67;70.40;99887.06;4975923;28;20132;-78
2022/09/27 04:18:48;;;;;;;0.10;0.10;;;;;;;11.67;70.50;99881.75;4975684;28;20055;-78
2022/09/27 04:21:14;;;;;;;0.28;0.28;;;;;;;11.68;70.84;99875.50;4980832;28;20035;-78
2022/09/27 04:23:43;;;;;;;0.17;0.17;;;;;;;11.69;70.35;99856.00;4976357;28;20531;-79
2022/09/27 04:26:10;;;;;;;0.10;0.10;;;;;;;11.67;70.35;99871.13;4976762;28;20496;-79
2022/09/27 04:28:36;;;;;;;0.10;0.10;;;;;;;11.63;70.29;99879.19;4977965;28;20120;-80
2022/09/27 04:31:02;;;;;;;0.50;0.50;;;;;;;11.55;69.89;99872.47;4980623;28;20069;-79
2022/09/27 04:33:28;;;;;;;0.15;0.15;;;;;;;11.54;70.49;99871.63;4975134;28;20047;-80
2022/09/27 04:36:25;;;;;;;0.10;0.10;;;;;;;11.54;70.46;99855.69;4975985;28;20035;-79
2022/09/27 04:38:40;;;;;;;0.10;0.10;;;;;;;11.54;70.47;99855.69;4972048;28;20041;-80
2022/09/27 04:41:07;;;;;;;0.10;0.10;;;;;;;11.54;70.40;99853.03;4974355;28;20065;-80
2022/09/27 04:43:33;;;;;;;0.30;0.30;;;;;;;11.56;70.71;99848.53;4975826;28;20172;-78
2022/09/27 04:45:59;;;;;;;0.10;0.10;;;;;;;11.61;70.26;99851.00;4975277;28;20039;-79
2022/09/27 04:48:25;;;;;;;0.10;0.10;;;;;;;11.64;70.33;99857.03;4976198;28;20030;-79
2022/09/27 04:51:01;;;;;;;0.10;0.10;;;;;;;11.70;70.57;99844.44;4981099;28;20098;-79
2022/09/27 04:53:28;;;;;;;0.10;0.10;;;;;;;11.65;70.66;99850.81;4976224;28;20427;-80
2022/09/27 04:55:54;;;;;;;0.10;0.10;;;;;;;11.67;70.55;99861.38;4974391;28;20278;-81
2022/09/27 04:58:23;;;;;;;0.10;0.10;;;;;;;11.64;70.66;99854.41;4977359;28;20034;-81
2022/09/27 05:00:52;;;;;;;0.10;0.10;;;;;;;11.61;70.74;99857.19;4967669;28;20073;-81
2022/09/27 05:03:18;;;;;;;0.10;0.10;;;;;;;11.58;70.79;99862.59;4978963;28;20137;-80
2022/09/27 05:05:44;;;;;;;0.10;0.10;;;;;;;11.61;70.75;99859.84;4984862;28;20049;-80
2022/09/27 05:08:11;;;;;;;0.10;0.10;;;;;;;11.61;70.91;99859.84;4985953;28;20113;-80
2022/09/27 05:10:37;;;;;;;0.10;0.10;;;;;;;11.61;70.34;99864.25;4975067;28;20043;-80
2022/09/27 05:13:03;;;;;;;0.20;0.20;;;;;;;11.66;70.86;99867.59;4975373;28;20058;-80
2022/09/27 05:15:29;;;;;;;0.10;0.10;;;;;;;11.69;70.41;99875.44;4975168;28;20030;-80
2022/09/27 05:17:57;;;;;;;0.10;0.10;;;;;;;11.75;70.62;99869.00;4981312;28;20062;-79
2022/09/27 05:20:24;;;;;;;0.30;0.30;;;;;;;11.80;70.48;99888.25;4976952;28;20100;-80
2022/09/27 05:22:50;;;;;;;0.10;0.10;;;;;;;11.85;71.02;99883.66;4977763;28;20027;-79
2022/09/27 05:25:17;;;;;;;0.10;0.10;;;;;;;11.88;70.76;99856.97;4985450;28;20036;-78
2022/09/27 05:27:43;;;;;;;0.10;0.10;;;;;;;11.95;70.72;99865.53;4979431;28;20030;-80
2022/09/27 05:30:12;;;;;;;0.10;0.10;;;;;;;11.93;71.27;99857.63;4976769;28;20063;-79
2022/09/27 05:32:42;;;;;;;0.10;0.10;;;;;;;12.00;70.90;99862.72;4993458;28;20110;-79
2022/09/27 05:35:09;;;;;;;0.10;0.10;;;;;;;12.00;70.98;99862.72;4978981;28;20066;-78
2022/09/27 05:37:35;;;;;;;0.10;0.10;;;;;;;11.98;71.07;99884.03;4972738;28;20110;-78
2022/09/27 05:40:02;;;;;;;0.10;0.10;;;;;;;11.87;70.93;99894.19;4973922;28;20019;-77
2022/09/27 05:42:28;;;;;;;0.10;0.10;;;;;;;11.85;70.83;99875.69;4974469;28;20094;-77
2022/09/27 05:44:54;;;;;;;0.10;0.10;;;;;;;11.88;70.29;99875.56;4979110;28;20069;-77
2022/09/27 05:47:20;;;;;;;0.10;0.10;;;;;;;11.86;70.48;99866.78;4968966;28;20034;-77
2022/09/27 05:49:46;;;;;;;0.10;0.10;;;;;;;11.91;70.19;99870.13;4969294;28;20074;-80
2022/09/27 05:52:12;;;;;;;0.10;0.10;;;;;;;11.96;70.77;99870.84;4966671;28;20568;-79
2022/09/27 05:54:38;;;;;;;0.10;0.10;;;;;;;11.98;70.68;99868.09;4989395;28;20043;-81
2022/09/27 05:57:06;;;;;;;0.10;0.10;;;;;;;12.03;70.60;99868.78;4983904;28;20045;-81
2022/09/27 05:59:33;;;;;;;0.10;0.10;;;;;;;12.08;70.83;99865.94;4976866;28;20046;-79
2022/09/27 06:01:59;;;;;;;0.13;0.13;;;;;;;12.12;70.57;99868.41;4977036;28;20046;-80
2022/09/27 06:04:25;;;;;;;0.10;0.10;;;;;;;12.16;70.76;99868.25;4973927;28;20023;-79
2022/09/27 06:06:51;;;;;;;0.10;0.10;;;;;;;12.16;70.62;99871.78;4971643;28;20031;-81
2022/09/27 06:09:17;;;;;;;0.10;0.10;;;;;;;12.18;70.33;99869.94;4966426;28;20023;-79
2022/09/27 06:11:44;;;;;;;0.10;0.10;;;;;;;12.19;70.42;99868.16;4988757;28;20030;-81
2022/09/27 06:14:11;;;;;;;0.10;0.10;;;;;;;12.19;70.47;99874.31;4976301;28;20022;-80
2022/09/27 06:16:38;;;;;;;0.10;0.10;;;;;;;12.20;70.50;99860.13;4969649;28;20030;-80
2022/09/27 06:19:04;;;;;;;0.10;0.10;;;;;;;12.23;70.81;99870.59;4977533;28;20042;-80
2022/09/27 06:21:30;;;;;;;0.10;0.10;;;;;;;12.26;70.95;99861.63;4980356;28;20046;-80
2022/09/27 06:23:59;;;;;;;0.10;0.10;;;;;;;12.29;70.93;99864.16;4993884;28;20038;-80
2022/09/27 06:26:26;;;;;;;0.00;0.00;;;;;;;12.28;70.94;99871.25;4984732;28;20059;-79
2022/09/27 06:28:53;;;;;;;0.10;0.10;;;;;;;12.28;70.77;99873.91;4982139;28;20033;-81
2022/09/27 06:31:20;;;;;;;0.10;0.10;;;;;;;12.30;71.27;99876.53;4974436;28;20109;-80
2022/09/27 06:33:48;;;;;;;0.20;0.20;;;;;;;12.29;71.09;99880.09;4980198;28;20141;-80
2022/09/27 06:36:14;;;;;;;0.10;0.10;;;;;;;12.29;70.75;99872.97;4984904;28;20034;-79
2022/09/27 06:38:40;;;;;;;0.10;0.10;;;;;;;12.28;70.81;99878.38;4980064;28;20034;-80
2022/09/27 06:41:08;;;;;;;0.17;0.17;;;;;;;12.27;70.44;99877.53;4978825;28;20554;-80
2022/09/27 06:43:34;;;;;;;0.10;0.10;;;;;;;12.26;70.59;99870.47;4982692;28;20038;-80
2022/09/27 06:46:04;;;;;;;0.10;0.10;;;;;;;12.25;70.47;99868.75;4982110;28;20074;-80
2022/09/27 06:48:31;;;;;;;0.10;0.10;;;;;;;12.27;70.56;99872.22;4979875;28;20038;-80
2022/09/27 06:50:58;;;;;;;0.10;0.10;;;;;;;12.31;70.73;99864.94;4997532;28;20486;-80
2022/09/27 06:53:25;;;;;;;0.20;0.20;;;;;;;12.39;70.63;99877.91;5018922;28;20043;-80
2022/09/27 06:55:51;;;;;;;0.52;0.52;;;;;;;12.41;70.41;99882.25;4975302;28;20075;-80
2022/09/27 07:01:03;;;;;;;0.10;0.10;;;;;;;12.51;70.98;99890.69;4971563;28;20078;-80
2022/09/27 07:03:32;;;;;;;0.17;0.17;;;;;;;12.57;70.99;99898.38;4967217;28;20027;-81
2022/09/27 07:06:01;;;;;;;0.10;0.10;;;;;;;12.59;70.68;99899.16;4977545;28;20038;-81
2022/09/27 07:08:28;;;;;;;0.10;0.10;;;;;;;12.62;70.63;99912.31;4979471;28;20015;-82
2022/09/27 07:11:00;;;;;;;0.10;0.10;;;;;;;12.60;70.89;99916.84;4972930;28;20054;-80
2022/09/27 07:13:33;;;;;;;0.10;0.10;;;;;;;12.59;70.42;99909.78;4970486;28;20752;-81
2022/09/27 07:16:00;;;;;;;0.10;0.10;;;;;;;12.51;70.97;99911.06;4981399;28;20054;-80
2022/09/27 07:18:26;;;;;;;0.10;0.10;;;;;;;12.44;70.07;99927.25;4981367;28;20396;-80
2022/09/27 07:20:53;;;;;;;0.10;0.10;;;;;;;12.39;69.91;99925.75;4968594;28;20046;-80
2022/09/27 07:23:19;;;;;;;0.10;0.10;;;;;;;12.32;70.03;99930.41;4978342;28;20030;-80
2022/09/27 07:25:46;;;;;;;0.10;0.10;;;;;;;12.17;69.96;99934.59;4971437;28;20023;-79
2022/09/27 07:28:15;;;;;;;0.10;0.10;;;;;;;12.23;70.15;99939.63;4971496;28;20027;-80
2022/09/27 07:30:42;;;;;;;0.10;0.10;;;;;;;12.19;69.96;99930.09;4975289;28;20060;-79
2022/09/27 07:33:09;;;;;;;0.10;0.10;;;;;;;12.19;69.50;99931.88;4978636;28;20031;-79
2022/09/27 07:35:39;;;;;;;0.10;0.10;;;;;;;12.03;69.81;99937.81;4971598;28;20584;-78
2022/09/27 07:38:07;;;;;;;0.10;0.10;;;;;;;11.92;69.44;99935.53;4971275;28;20031;-78
2022/09/27 07:40:35;;;;;;;0.20;0.20;;;;;;;11.94;69.22;99949.63;4974081;28;20050;-79
2022/09/27 07:43:02;;;;;;;0.10;0.10;;;;;;;11.94;70.06;99954.94;4971346;28;20030;-78
2022/09/27 07:45:29;;;;;;;0.10;0.10;;;;;;;11.95;70.07;99951.38;4974341;28;20516;-78
2022/09/27 07:47:55;;;;;;;0.10;0.10;;;;;;;11.98;69.78;99953.06;4974827;28;20038;-78
2022/09/27 07:50:21;;;;;;;0.10;0.10;;;;;;;12.02;69.95;99952.00;4972752;28;20031;-78
2022/09/27 07:52:50;;;;;;;0.10;0.10;;;;;;;12.03;69.77;99959.03;4972386;28;20113;-78
2022/09/27 07:55:17;;;;;;;0.10;0.10;;;;;;;11.97;70.38;99948.66;4993550;28;20022;-78
2022/09/27 07:57:46;;;;;;;0.45;0.45;;;;;;;12.00;70.25;99947.69;4982127;28;20027;-78
2022/09/27 08:00:15;;;;;;;0.17;0.17;;;;;;;12.05;70.07;99951.00;4972336;28;20034;-79
2022/09/27 08:02:43;;;;;;;0.10;0.10;;;;;;;12.10;70.36;99944.59;4967319;28;20031;-79
2022/09/27 08:05:10;;;;;;;0.10;0.10;;;;;;;12.17;70.65;99939.03;4978087;28;20038;-78
2022/09/27 08:07:38;;;;;;;0.10;0.10;;;;;;;12.24;70.57;99944.03;4983322;28;20625;-79
2022/09/27 08:10:06;;;;;;;0.10;0.10;;;;;;;12.30;70.32;99940.28;4972058;28;20036;-79
2022/09/27 08:12:32;;;;;;;0.10;0.10;;;;;;;12.38;70.39;99943.44;4983560;28;20047;-79
2022/09/27 08:15:00;;;;;;;0.10;0.10;;;;;;;12.44;70.93;99942.34;4972337;28;20396;-79
2022/09/27 08:17:27;;;;;;;0.10;0.10;;;;;;;12.51;70.30;99954.44;4983273;28;20064;-80
2022/09/27 08:19:53;;;;;;;0.10;0.10;;;;;;;12.55;70.52;99961.34;4979124;28;20027;-79
2022/09/27 08:22:20;;;;;;;0.10;0.10;;;;;;;12.62;70.32;99973.44;4973283;28;20113;-79
2022/09/27 08:24:46;;;;;;;0.10;0.10;;;;;;;12.63;70.14;99968.97;4973980;28;20157;-79
2022/09/27 08:27:13;;;;;;;0.10;0.10;;;;;;;12.64;70.35;99975.19;4969827;28;20438;-78
2022/09/27 08:29:40;;;;;;;0.20;0.20;;;;;;;12.64;70.77;99976.03;4974362;28;21392;-78
2022/09/27 08:32:08;;;;;;;0.10;0.10;;;;;;;12.67;70.27;99980.34;4970850;28;20045;-80
2022/09/27 08:34:34;;;;;;;0.10;0.10;;;;;;;12.66;70.13;99989.25;4984972;28;20022;-79
2022/09/27 08:37:00;;;;;;;0.10;0.10;;;;;;;12.61;69.89;99995.63;4990966;28;20037;-77
2022/09/27 08:39:26;;;;;;;0.10;0.10;;;;;;;12.59;70.43;99984.19;4976254;28;20027;-78
2022/09/27 08:47:53;;;;;;;0.10;0.10;;;;;;;12.45;70.12;99986.59;5150094;27;20385;-77
2022/09/27 08:53:04;;;;;;;0.10;0.10;;;;;;;12.38;69.57;100006.34;5104022;27;20125;-75
2022/09/27 08:55:35;;;;;;;;;;;;;;;12.45;69.48;99998.06;5087585;28;20494;-75
2022/09/27 08:58:09;;;;;;;0.10;0.10;;;;;;;12.26;69.69;99994.41;5086014;28;19914;-76
2022/09/27 09:00:35;;;;;;;0.17;0.17;;;;;;;12.24;70.01;99985.66;5086393;28;20421;-76
2022/09/27 09:03:02;;;;;;;0.10;0.10;;;;;;;12.27;70.35;99980.22;5087896;28;20039;-77
2022/09/27 09:05:33;;;;;;;0.10;0.10;;;;;;;12.35;70.26;99986.09;5088349;28;20034;-77
2022/09/27 09:14:31;;;;;;;0.10;0.10;;;;;;;12.76;70.46;99999.44;5085942;28;20038;-78
2022/09/27 09:17:23;;;;;;;0.10;0.10;;;;;;;12.86;70.59;99985.72;5090019;28;20081;-78
2022/09/27 09:20:19;;;;;;;0.20;0.20;;;;;;;12.87;70.27;99982.16;5088076;28;20032;-78
2022/09/27 09:28:40;;;;;;;0.10;0.10;;;;;;;13.23;70.98;99979.69;5107082;27;20376;-78
2022/09/27 09:31:38;;;;;;;0.10;0.10;;;;;;;13.33;70.43;99972.13;5085373;28;20059;-78
2022/09/27 09:34:17;;;;;;;0.10;0.10;;;;;;;13.42;70.78;99977.06;5076666;28;20036;-78
2022/09/27 09:39:47;;;;;;;0.10;0.10;;;;;;;13.50;70.58;99976.72;5084101;27;20905;-78
2022/09/27 09:42:19;;;;;;;0.40;0.40;;;;;;;13.50;70.48;99974.06;5085084;28;20491;-78
2022/09/27 09:45:04;;;;;;;1.77;1.65;;;;;;;13.55;69.91;99980.03;5076212;28;20031;-78
2022/09/27 09:47:51;;;;;;;0.10;0.10;;;;;;;13.54;69.83;99972.97;5071135;28;20029;-78
2022/09/27 09:50:25;;;;;;;0.20;0.20;;;;;;;13.50;70.15;99982.03;5065039;28;20070;-78
2022/09/27 09:52:58;;;;;;;0.13;0.13;;;;;;;13.50;69.94;99976.72;5070461;28;20051;-78
2022/09/27 09:55:29;;;;;;;0.20;0.20;;;;;;;13.50;69.85;99984.69;5080893;28;20437;-78
2022/09/27 09:58:20;;;;;;;0.10;0.10;;;;;;;13.53;69.93;99991.69;5074227;28;20028;-78
2022/09/27 10:00:49;;;;;;;0.10;0.10;;;;;;;13.47;69.61;99998.16;5064840;28;20086;-79
2022/09/27 10:03:15;;;;;;;0.10;0.10;;;;;;;13.44;69.78;99990.31;5069718;28;20476;-78
2022/09/27 10:05:44;;;;;;;0.10;0.10;;;;;;;13.45;69.79;100001.81;5069471;28;20032;-77
2022/09/27 10:08:18;;;;;;;0.10;0.10;;;;;;;13.44;69.15;100008.94;5068938;28;20025;-78
2022/09/27 10:10:44;;;;;;;0.10;0.10;;;;;;;13.40;69.35;100002.03;5073412;28;20037;-79
2022/09/27 10:13:16;;;;;;;0.20;0.20;;;;;;;13.36;69.46;100016.38;5067342;28;20080;-78
2022/09/27 10:15:52;;;;;;;0.10;0.10;;;;;;;13.31;69.30;100018.34;5062023;28;20488;-78
2022/09/27 10:18:18;;;;;;;0.10;0.10;;;;;;;13.25;69.34;100023.00;5069381;28;20488;-78
2022/09/27 10:20:58;;;;;;;0.10;0.10;;;;;;;13.25;69.56;100014.19;5076058;28;20058;-78
2022/09/27 10:23:25;;;;;;;0.10;0.10;;;;;;;13.14;69.29;100006.66;5087817;28;20020;-78
2022/09/27 10:25:57;;;;;;;0.10;0.10;;;;;;;13.10;69.48;99997.97;5088451;28;20074;-78
2022/09/27 10:31:09;;;;;;;0.10;0.10;;;;;;;12.88;69.27;99998.03;5107530;27;20400;-78
2022/09/27 10:33:50;;;;;;;0.20;0.20;;;;;;;12.86;69.87;100005.22;5100886;28;20035;-78
2022/09/27 10:36:34;;;;;;;0.10;0.10;;;;;;;12.94;69.30;100005.75;5089921;28;20024;-78
2022/09/27 10:39:03;;;;;;;4.18;1.33;;;;;;;12.87;69.64;100011.41;5103624;28;20103;-78
2022/09/27 10:47:08;;;;;;;0.10;0.10;;;;;;;12.76;69.58;100019.81;5110604;27;20359;-78
2022/09/27 10:49:37;;;;;;;0.10;0.10;;;;;;;12.66;69.41;100015.81;5110343;28;20233;-78
2022/09/27 10:52:09;;;;;;;0.10;0.10;;;;;;;12.52;69.68;100003.97;5089560;28;20025;-78
2022/09/27 10:54:38;;;;;;;0.20;0.20;;;;;;;12.45;69.83;99999.88;5094288;28;20024;-78
2022/09/27 10:57:16;;;;;;;0.10;0.10;;;;;;;12.45;70.18;100003.38;5102449;28;20028;-78
2022/09/27 10:59:48;;;;;;;0.20;0.20;;;;;;;12.40;69.76;99993.84;5096230;28;20506;-78
2022/09/27 11:02:22;;;;;;;0.20;0.20;;;;;;;12.36;69.67;99997.56;5098335;28;20024;-78
2022/09/27 11:05:10;;;;;;;0.17;0.17;;;;;;;12.32;69.92;100011.91;5100751;28;20020;-78
2022/09/27 11:07:46;;;;;;;0.10;0.10;;;;;;;12.14;70.30;100011.72;5087616;28;20033;-78
2022/09/27 11:10:30;;;;;;;0.10;0.10;;;;;;;12.18;69.59;100005.38;5083604;28;20028;-78
2022/09/27 11:24:59;;;;;;;0.20;0.20;;;;;;;12.52;70.28;99979.22;5048303;28;20416;-78
2022/09/27 11:30:28;;;;;;;0.10;0.10;;;;;;;12.58;70.62;99970.97;5057896;27;20382;-78
2022/09/27 11:36:12;;;;;;;0.10;0.10;;;;;;;12.66;70.36;99978.63;5108917;27;20327;-78
2022/09/27 11:39:13;;;;;;;0.10;0.10;;;;;;;12.71;69.86;99971.31;5097341;28;20092;-78
2022/09/27 11:42:01;;;;;;;0.10;0.10;;;;;;;12.75;70.59;99970.28;5102042;28;20035;-78
2022/09/27 11:47:24;;;;;;;0.10;0.10;;;;;;;13.00;70.51;99953.25;5103918;27;20916;-78
2022/09/27 12:06:18;;;;;;;1.08;1.08;;;;;;;13.93;69.66;99951.66;5098897;27;20758;-78
2022/09/27 12:11:54;;;;;;;0.10;0.10;;;;;;;14.23;69.55;99960.81;5080550;27;20755;-78
2022/09/27 12:14:44;;;;;;;0.10;0.10;;;;;;;14.39;68.97;99955.59;5070359;28;20037;-78
2022/09/27 12:17:17;;;;;;;0.10;0.10;;;;;;;14.40;68.17;99959.13;5070150;28;20182;-78
2022/09/27 12:19:50;;;;;;;0.10;0.10;;;;;;;14.45;67.56;99957.06;5062784;28;20499;-78
2022/09/27 12:22:23;;;;;;;0.10;0.10;;;;;;;14.43;66.22;99950.97;5070060;28;20024;-78
2022/09/27 12:24:50;;;;;;;0.10;0.10;;;;;;;14.43;66.69;99950.97;5062174;28;20029;-78
2022/09/27 12:27:22;;;;;;;0.10;0.10;;;;;;;14.54;66.86;99947.75;5070212;28;20025;-78
2022/09/27 12:29:50;;;;;;;0.10;0.10;;;;;;;14.63;67.19;99947.31;5069190;28;20545;-77
2022/09/27 12:32:24;;;;;;;0.10;0.10;;;;;;;14.76;67.53;99942.22;5069228;28;20102;-78
2022/09/27 12:35:00;;;;;;;0.10;0.10;;;;;;;14.91;67.17;99932.56;5069616;28;20020;-78
2022/09/27 12:40:27;;;;;;;0.10;0.10;;;;;;;15.06;66.22;99930.88;5109330;27;20505;-78
2022/09/27 12:45:47;;;;;;;0.10;0.10;;;;;;;15.35;66.59;99917.75;5104482;27;20402;-78
2022/09/27 12:48:30;;;;;;;0.50;0.50;;;;;;;15.47;66.15;99925.09;5087604;28;20028;-78
2022/09/27 12:51:07;;;;;;;0.10;0.10;;;;;;;15.53;64.77;99915.91;5087026;28;20036;-78
2022/09/27 12:57:04;;;;;;;0.10;0.10;;;;;;;15.81;65.15;99907.22;5089709;27;20757;-79
2022/09/27 13:05:12;;;;;;;0.10;0.10;;;;;;;16.11;62.73;99892.19;5051559;28;20407;-78
2022/09/27 13:13:12;;;;;;;0.10;0.10;;;;;;;15.98;61.72;99889.38;5098130;27;20059;-78
2022/09/27 13:15:42;;;;;;;0.10;0.10;;;;;;;15.90;62.44;99894.28;5083171;28;20035;-78
2022/09/27 13:18:31;;;;;;;0.10;0.10;;;;;;;15.90;63.66;99892.50;5099051;27;20379;-78
2022/09/27 13:20:58;;;;;;;0.10;0.10;;;;;;;15.82;64.39;99886.72;5087877;28;20452;-78
2022/09/27 13:48:42;;;;;;;0.10;0.10;;;;;;;15.26;59.53;99875.59;5112095;27;20331;-79
2022/09/27 13:51:28;;;;;;;;;;;;;;;15.33;60.61;99877.81;5111856;28;20035;-79
2022/09/27 13:54:04;;;;;;;0.10;0.10;;;;;;;15.19;59.28;99870.59;5112313;28;20302;-79
2022/09/27 13:56:52;;;;;;;0.10;0.10;;;;;;;15.29;59.38;99873.59;5097797;28;20028;-79
2022/09/27 13:59:30;;;;;;;0.10;0.10;;;;;;;15.15;57.46;99863.69;5091661;28;20028;-79
2022/09/27 14:02:12;;;;;;;0.20;0.20;;;;;;;15.19;59.92;99857.25;5101171;28;20024;-79
2022/09/27 14:04:47;;;;;;;0.20;0.20;;;;;;;15.13;58.27;99860.25;5087591;28;20115;-79
2022/09/27 14:07:17;;;;;;;0.10;0.10;;;;;;;15.03;55.50;99864.38;5080530;28;20031;-80
2022/09/27 14:09:46;;;;;;;0.73;0.73;;;;;;;14.98;56.28;99851.28;5093129;28;20024;-79
2022/09/27 14:12:19;;;;;;;0.60;0.60;;;;;;;15.06;56.46;99852.66;5094491;28;20047;-79
2022/09/27 14:14:48;;;;;;;0.10;0.10;;;;;;;14.99;54.01;99847.66;5093648;28;20020;-79